Terminal Aerodrome Forecast
Issued by NWS

Home | Current Version | Previous Version | Text Only | Print | Product List | Glossary On
Versions: 1 2 3 4 5 6 7 8 9 10 11 12 13 14 15 16 17 18 19 20 21 22 23 24 25 26 27 28 29 30 31 32 33 34
000
FTUS44 KLIX 211700
TAFHUM
TAF
KHUM 211723Z 2118/2218 04006KT 5SM BR OVC010
     FM212000 06006KT P6SM BKN014
     FM220300 07006KT P6SM BKN010
     FM220800 13004KT 3SM BR BKN004
     FM221600 21006KT P6SM BKN005
     FM221700 21007KT P6SM BKN020=

USA.gov is the U.S. government's official web portal to all federal, state and local government web resources and services.